sensor_id;sensor_type;location;lat;lon;timestamp;temperature;humidity
21744;DHT22;11034;48.556;9.342;2022-12-18T00:01:29;-9.50;99.90
21744;DHT22;11034;48.556;9.342;2022-12-18T00:03:58;-9.50;99.90
21744;DHT22;11034;48.556;9.342;2022-12-18T00:06:27;-9.60;99.90
21744;DHT22;11034;48.556;9.342;2022-12-18T00:08:56;-9.60;99.90
21744;DHT22;11034;48.556;9.342;2022-12-18T00:11:26;-9.70;99.90
21744;DHT22;11034;48.556;9.342;2022-12-18T00:13:58;-9.60;99.90
21744;DHT22;11034;48.556;9.342;2022-12-18T00:16:27;-9.30;99.90
21744;DHT22;11034;48.556;9.342;2022-12-18T00:18:57;-9.10;99.90
21744;DHT22;11034;48.556;9.342;2022-12-18T00:21:25;-9.10;99.90
21744;DHT22;11034;48.556;9.342;2022-12-18T00:23:54;-9.00;99.90
21744;DHT22;11034;48.556;9.342;2022-12-18T00:26:23;-8.90;99.90
21744;DHT22;11034;48.556;9.342;2022-12-18T00:28:52;-8.70;99.90
21744;DHT22;11034;48.556;9.342;2022-12-18T00:31:23;-8.50;99.90
21744;DHT22;11034;48.556;9.342;2022-12-18T00:33:53;-8.40;99.90
21744;DHT22;11034;48.556;9.342;2022-12-18T00:36:23;-8.40;99.90
21744;DHT22;11034;48.556;9.342;2022-12-18T00:38:52;-8.40;99.90
21744;DHT22;11034;48.556;9.342;2022-12-18T00:41:21;-8.40;99.90
21744;DHT22;11034;48.556;9.342;2022-12-18T00:44:04;-8.50;99.90
21744;DHT22;11034;48.556;9.342;2022-12-18T00:46:34;-8.50;99.90
21744;DHT22;11034;48.556;9.342;2022-12-18T00:49:02;-8.70;99.90
21744;DHT22;11034;48.556;9.342;2022-12-18T00:51:30;-8.80;99.90
21744;DHT22;11034;48.556;9.342;2022-12-18T00:53:58;-8.80;99.90
21744;DHT22;11034;48.556;9.342;2022-12-18T00:56:26;-8.80;99.90
21744;DHT22;11034;48.556;9.342;2022-12-18T00:58:54;-8.70;99.90
21744;DHT22;11034;48.556;9.342;2022-12-18T01:01:22;-8.70;99.90
21744;DHT22;11034;48.556;9.342;2022-12-18T01:03:51;-8.60;99.90
21744;DHT22;11034;48.556;9.342;2022-12-18T01:06:19;-8.20;99.90
21744;DHT22;11034;48.556;9.342;2022-12-18T01:08:47;-7.80;99.90
21744;DHT22;11034;48.556;9.342;2022-12-18T01:11:17;-7.60;99.90
21744;DHT22;11034;48.556;9.342;2022-12-18T01:13:46;-7.60;99.90
21744;DHT22;11034;48.556;9.342;2022-12-18T01:16:15;-7.70;99.90
21744;DHT22;11034;48.556;9.342;2022-12-18T01:18:44;-8.00;99.90
21744;DHT22;11034;48.556;9.342;2022-12-18T01:21:15;-8.30;99.90
21744;DHT22;11034;48.556;9.342;2022-12-18T01:23:43;-8.60;99.90
21744;DHT22;11034;48.556;9.342;2022-12-18T01:26:13;-9.00;99.90
21744;DHT22;11034;48.556;9.342;2022-12-18T01:28:42;-9.10;99.90
21744;DHT22;11034;48.556;9.342;2022-12-18T01:31:12;-9.00;99.90
21744;DHT22;11034;48.556;9.342;2022-12-18T01:33:40;-8.50;99.90
21744;DHT22;11034;48.556;9.342;2022-12-18T01:36:16;-8.10;99.90
21744;DHT22;11034;48.556;9.342;2022-12-18T01:38:44;-7.70;99.90
21744;DHT22;11034;48.556;9.342;2022-12-18T01:41:13;-7.70;99.90
21744;DHT22;11034;48.556;9.342;2022-12-18T01:43:48;-7.60;99.90
21744;DHT22;11034;48.556;9.342;2022-12-18T01:46:17;-7.50;99.90
21744;DHT22;11034;48.556;9.342;2022-12-18T01:48:47;-7.70;99.90
21744;DHT22;11034;48.556;9.342;2022-12-18T01:51:17;-7.80;99.90
21744;DHT22;11034;48.556;9.342;2022-12-18T01:53:47;-7.80;99.90
21744;DHT22;11034;48.556;9.342;2022-12-18T01:56:16;-7.80;99.90
21744;DHT22;11034;48.556;9.342;2022-12-18T01:58:51;-7.70;99.90
21744;DHT22;11034;48.556;9.342;2022-12-18T02:01:22;-7.50;99.90
21744;DHT22;11034;48.556;9.342;2022-12-18T02:03:51;-7.20;99.90
21744;DHT22;11034;48.556;9.342;2022-12-18T02:06:23;-7.00;99.90
21744;DHT22;11034;48.556;9.342;2022-12-18T02:09:07;-6.90;99.90
21744;DHT22;11034;48.556;9.342;2022-12-18T02:11:42;-6.90;99.90
21744;DHT22;11034;48.556;9.342;2022-12-18T02:14:18;-6.80;99.90
21744;DHT22;11034;48.556;9.342;2022-12-18T02:16:52;-6.70;99.90
21744;DHT22;11034;48.556;9.342;2022-12-18T02:19:41;-6.80;99.90
21744;DHT22;11034;48.556;9.342;2022-12-18T02:22:26;-6.70;99.90
21744;DHT22;11034;48.556;9.342;2022-12-18T02:25:05;-6.80;99.90
21744;DHT22;11034;48.556;9.342;2022-12-18T02:27:37;-6.90;99.90
21744;DHT22;11034;48.556;9.342;2022-12-18T02:30:06;-6.90;99.90
21744;DHT22;11034;48.556;9.342;2022-12-18T02:32:39;-7.10;99.90
21744;DHT22;11034;48.556;9.342;2022-12-18T02:35:11;-7.10;99.90
21744;DHT22;11034;48.556;9.342;2022-12-18T02:37:42;-7.10;99.90
21744;DHT22;11034;48.556;9.342;2022-12-18T02:40:11;-6.90;99.90
21744;DHT22;11034;48.556;9.342;2022-12-18T02:42:41;-6.90;99.90
21744;DHT22;11034;48.556;9.342;2022-12-18T02:45:10;-7.00;99.90
21744;DHT22;11034;48.556;9.342;2022-12-18T02:47:39;-7.20;99.90
21744;DHT22;11034;48.556;9.342;2022-12-18T02:50:16;-7.40;99.90
21744;DHT22;11034;48.556;9.342;2022-12-18T02:52:53;-7.50;99.90
21744;DHT22;11034;48.556;9.342;2022-12-18T02:55:31;-7.90;99.90
21744;DHT22;11034;48.556;9.342;2022-12-18T02:58:10;-8.20;99.90
21744;DHT22;11034;48.556;9.342;2022-12-18T03:00:43;-8.50;99.90
21744;DHT22;11034;48.556;9.342;2022-12-18T03:03:19;-8.60;99.90
21744;DHT22;11034;48.556;9.342;2022-12-18T03:05:55;-8.80;99.90
21744;DHT22;11034;48.556;9.342;2022-12-18T03:08:27;-8.80;99.90
21744;DHT22;11034;48.556;9.342;2022-12-18T03:11:00;-8.80;99.90
21744;DHT22;11034;48.556;9.342;2022-12-18T03:13:34;-8.80;99.90
21744;DHT22;11034;48.556;9.342;2022-12-18T03:16:06;-8.50;99.90
21744;DHT22;11034;48.556;9.342;2022-12-18T03:18:38;-8.30;99.90
21744;DHT22;11034;48.556;9.342;2022-12-18T03:21:09;-8.30;99.90
21744;DHT22;11034;48.556;9.342;2022-12-18T03:23:40;-8.10;99.90
21744;DHT22;11034;48.556;9.342;2022-12-18T03:26:14;-8.00;99.90
21744;DHT22;11034;48.556;9.342;2022-12-18T03:28:48;-8.00;99.90
21744;DHT22;11034;48.556;9.342;2022-12-18T03:31:18;-7.90;99.90
21744;DHT22;11034;48.556;9.342;2022-12-18T03:33:52;-7.90;99.90
21744;DHT22;11034;48.556;9.342;2022-12-18T03:36:21;-7.90;99.90
21744;DHT22;11034;48.556;9.342;2022-12-18T03:38:51;-8.00;99.90
21744;DHT22;11034;48.556;9.342;2022-12-18T03:41:24;-8.00;99.90
21744;DHT22;11034;48.556;9.342;2022-12-18T03:43:59;-8.20;99.90
21744;DHT22;11034;48.556;9.342;2022-12-18T03:46:40;-8.30;99.90
21744;DHT22;11034;48.556;9.342;2022-12-18T03:49:10;-8.30;99.90
21744;DHT22;11034;48.556;9.342;2022-12-18T03:51:42;-8.40;99.90
21744;DHT22;11034;48.556;9.342;2022-12-18T03:54:11;-8.60;99.90
21744;DHT22;11034;48.556;9.342;2022-12-18T03:56:43;-8.80;99.90
21744;DHT22;11034;48.556;9.342;2022-12-18T03:59:15;-8.90;99.90
21744;DHT22;11034;48.556;9.342;2022-12-18T04:01:47;-9.10;99.90
21744;DHT22;11034;48.556;9.342;2022-12-18T04:04:18;-9.10;99.90
21744;DHT22;11034;48.556;9.342;2022-12-18T04:06:48;-9.30;99.90
21744;DHT22;11034;48.556;9.342;2022-12-18T04:09:17;-9.40;99.90
21744;DHT22;11034;48.556;9.342;2022-12-18T04:11:46;-9.50;99.90
21744;DHT22;11034;48.556;9.342;2022-12-18T04:14:15;-9.50;99.90
21744;DHT22;11034;48.556;9.342;2022-12-18T04:16:44;-9.40;99.90
21744;DHT22;11034;48.556;9.342;2022-12-18T04:19:12;-9.40;99.90
21744;DHT22;11034;48.556;9.342;2022-12-18T04:21:40;-9.30;99.90
21744;DHT22;11034;48.556;9.342;2022-12-18T04:24:08;-9.20;99.90
21744;DHT22;11034;48.556;9.342;2022-12-18T04:26:36;-9.30;99.90
21744;DHT22;11034;48.556;9.342;2022-12-18T04:29:04;-9.20;99.90
21744;DHT22;11034;48.556;9.342;2022-12-18T04:31:34;-9.20;99.90
21744;DHT22;11034;48.556;9.342;2022-12-18T04:34:02;-9.10;99.90
21744;DHT22;11034;48.556;9.342;2022-12-18T04:36:30;-9.10;99.90
21744;DHT22;11034;48.556;9.342;2022-12-18T04:38:58;-8.80;99.90
21744;DHT22;11034;48.556;9.342;2022-12-18T04:41:26;-8.80;99.90
21744;DHT22;11034;48.556;9.342;2022-12-18T04:43:54;-8.70;99.90
21744;DHT22;11034;48.556;9.342;2022-12-18T04:46:22;-8.70;99.90
21744;DHT22;11034;48.556;9.342;2022-12-18T04:48:51;-8.70;99.90
21744;DHT22;11034;48.556;9.342;2022-12-18T04:51:19;-8.60;99.90
21744;DHT22;11034;48.556;9.342;2022-12-18T04:53:52;-8.60;99.90
21744;DHT22;11034;48.556;9.342;2022-12-18T04:56:20;-8.60;99.90
21744;DHT22;11034;48.556;9.342;2022-12-18T04:58:48;-8.10;99.90
21744;DHT22;11034;48.556;9.342;2022-12-18T05:01:18;-7.70;99.90
21744;DHT22;11034;48.556;9.342;2022-12-18T05:03:46;-7.70;99.90
21744;DHT22;11034;48.556;9.342;2022-12-18T05:06:15;-7.90;99.90
21744;DHT22;11034;48.556;9.342;2022-12-18T05:08:43;-7.90;99.90
21744;DHT22;11034;48.556;9.342;2022-12-18T05:11:14;-7.90;99.90
21744;DHT22;11034;48.556;9.342;2022-12-18T05:13:43;-7.80;99.90
21744;DHT22;11034;48.556;9.342;2022-12-18T05:16:12;-7.90;99.90
21744;DHT22;11034;48.556;9.342;2022-12-18T05:18:40;-7.90;99.90
21744;DHT22;11034;48.556;9.342;2022-12-18T05:21:09;-7.60;99.90
21744;DHT22;11034;48.556;9.342;2022-12-18T05:23:38;-7.30;99.90
21744;DHT22;11034;48.556;9.342;2022-12-18T05:26:07;-7.60;99.90
21744;DHT22;11034;48.556;9.342;2022-12-18T05:28:35;-8.00;99.90
21744;DHT22;11034;48.556;9.342;2022-12-18T05:31:04;-8.40;99.90
21744;DHT22;11034;48.556;9.342;2022-12-18T05:33:34;-8.20;99.90
21744;DHT22;11034;48.556;9.342;2022-12-18T05:36:04;-8.00;99.90
21744;DHT22;11034;48.556;9.342;2022-12-18T05:38:34;-8.40;99.90
21744;DHT22;11034;48.556;9.342;2022-12-18T05:41:04;-8.70;99.90
21744;DHT22;11034;48.556;9.342;2022-12-18T05:43:34;-8.60;99.90
21744;DHT22;11034;48.556;9.342;2022-12-18T05:46:06;-8.50;99.90
21744;DHT22;11034;48.556;9.342;2022-12-18T05:48:35;-8.60;99.90
21744;DHT22;11034;48.556;9.342;2022-12-18T05:51:04;-8.70;99.90
21744;DHT22;11034;48.556;9.342;2022-12-18T05:53:34;-8.90;99.90
21744;DHT22;11034;48.556;9.342;2022-12-18T05:56:07;-8.90;99.90
21744;DHT22;11034;48.556;9.342;2022-12-18T05:58:36;-9.00;99.90
21744;DHT22;11034;48.556;9.342;2022-12-18T06:01:13;-9.20;99.90
21744;DHT22;11034;48.556;9.342;2022-12-18T06:03:42;-9.40;99.90
21744;DHT22;11034;48.556;9.342;2022-12-18T06:06:14;-9.40;99.90
21744;DHT22;11034;48.556;9.342;2022-12-18T06:08:43;-9.30;99.90
21744;DHT22;11034;48.556;9.342;2022-12-18T06:11:17;-9.00;99.90
21744;DHT22;11034;48.556;9.342;2022-12-18T06:13:45;-8.90;99.90
21744;DHT22;11034;48.556;9.342;2022-12-18T06:16:13;-8.90;99.90
21744;DHT22;11034;48.556;9.342;2022-12-18T06:18:41;-9.00;99.90
21744;DHT22;11034;48.556;9.342;2022-12-18T06:21:09;-8.90;99.90
21744;DHT22;11034;48.556;9.342;2022-12-18T06:23:37;-8.60;99.90
21744;DHT22;11034;48.556;9.342;2022-12-18T06:26:06;-8.40;99.90
21744;DHT22;11034;48.556;9.342;2022-12-18T06:28:36;-8.40;99.90
21744;DHT22;11034;48.556;9.342;2022-12-18T06:31:04;-8.60;99.90
21744;DHT22;11034;48.556;9.342;2022-12-18T06:33:33;-8.90;99.90
21744;DHT22;11034;48.556;9.342;2022-12-18T06:36:03;-8.90;99.90
21744;DHT22;11034;48.556;9.342;2022-12-18T06:38:31;-8.80;99.90
21744;DHT22;11034;48.556;9.342;2022-12-18T06:40:59;-8.80;99.90
21744;DHT22;11034;48.556;9.342;2022-12-18T06:43:27;-8.60;99.90
21744;DHT22;11034;48.556;9.342;2022-12-18T06:45:59;-8.60;99.90
21744;DHT22;11034;48.556;9.342;2022-12-18T06:48:28;-8.50;99.90
21744;DHT22;11034;48.556;9.342;2022-12-18T06:50:56;-8.60;99.90
21744;DHT22;11034;48.556;9.342;2022-12-18T06:53:24;-8.20;99.90
21744;DHT22;11034;48.556;9.342;2022-12-18T06:55:52;-8.20;99.90
21744;DHT22;11034;48.556;9.342;2022-12-18T06:58:20;-8.20;99.90
21744;DHT22;11034;48.556;9.342;2022-12-18T07:00:48;-8.40;99.90
21744;DHT22;11034;48.556;9.342;2022-12-18T07:03:17;-8.70;99.90
21744;DHT22;11034;48.556;9.342;2022-12-18T07:05:45;-8.80;99.90
21744;DHT22;11034;48.556;9.342;2022-12-18T07:08:13;-8.80;99.90
21744;DHT22;11034;48.556;9.342;2022-12-18T07:10:42;-8.80;99.90
21744;DHT22;11034;48.556;9.342;2022-12-18T07:13:13;-8.80;99.90
21744;DHT22;11034;48.556;9.342;2022-12-18T07:15:41;-8.80;99.90
21744;DHT22;11034;48.556;9.342;2022-12-18T07:18:10;-8.80;99.90
21744;DHT22;11034;48.556;9.342;2022-12-18T07:20:40;-8.80;99.90
21744;DHT22;11034;48.556;9.342;2022-12-18T07:23:08;-8.60;99.90
21744;DHT22;11034;48.556;9.342;2022-12-18T07:25:36;-8.40;99.90
21744;DHT22;11034;48.556;9.342;2022-12-18T07:28:06;-8.40;99.90
21744;DHT22;11034;48.556;9.342;2022-12-18T07:30:41;-8.30;99.90
21744;DHT22;11034;48.556;9.342;2022-12-18T07:33:09;-8.20;99.90
21744;DHT22;11034;48.556;9.342;2022-12-18T07:35:37;-8.10;99.90
21744;DHT22;11034;48.556;9.342;2022-12-18T07:38:06;-8.00;99.90
21744;DHT22;11034;48.556;9.342;2022-12-18T07:40:34;-7.90;99.90
21744;DHT22;11034;48.556;9.342;2022-12-18T07:43:04;-7.60;99.90
21744;DHT22;11034;48.556;9.342;2022-12-18T07:45:32;-6.90;99.90
21744;DHT22;11034;48.556;9.342;2022-12-18T07:48:00;-6.60;99.90
21744;DHT22;11034;48.556;9.342;2022-12-18T07:50:30;-6.50;99.90
21744;DHT22;11034;48.556;9.342;2022-12-18T07:52:58;-6.50;99.90
21744;DHT22;11034;48.556;9.342;2022-12-18T07:55:31;-6.30;99.90
21744;DHT22;11034;48.556;9.342;2022-12-18T07:58:19;-6.20;99.90
21744;DHT22;11034;48.556;9.342;2022-12-18T08:00:47;-6.10;99.90
21744;DHT22;11034;48.556;9.342;2022-12-18T08:03:15;-6.00;99.90
21744;DHT22;11034;48.556;9.342;2022-12-18T08:05:43;-6.00;99.90
21744;DHT22;11034;48.556;9.342;2022-12-18T08:08:11;-5.90;99.90
21744;DHT22;11034;48.556;9.342;2022-12-18T08:10:40;-6.00;99.90
21744;DHT22;11034;48.556;9.342;2022-12-18T08:13:08;-6.30;99.90
21744;DHT22;11034;48.556;9.342;2022-12-18T08:15:36;-6.30;99.90
21744;DHT22;11034;48.556;9.342;2022-12-18T08:18:04;-6.20;99.90
21744;DHT22;11034;48.556;9.342;2022-12-18T08:20:39;-6.10;99.90
21744;DHT22;11034;48.556;9.342;2022-12-18T08:23:07;-6.00;99.90
21744;DHT22;11034;48.556;9.342;2022-12-18T08:25:35;-5.80;99.90
21744;DHT22;11034;48.556;9.342;2022-12-18T08:28:04;-5.60;99.90
21744;DHT22;11034;48.556;9.342;2022-12-18T08:30:32;-5.50;99.90
21744;DHT22;11034;48.556;9.342;2022-12-18T08:33:01;-5.50;99.90
21744;DHT22;11034;48.556;9.342;2022-12-18T08:35:29;-5.40;99.90
21744;DHT22;11034;48.556;9.342;2022-12-18T08:38:04;-5.30;99.90
21744;DHT22;11034;48.556;9.342;2022-12-18T08:40:32;-5.30;99.90
21744;DHT22;11034;48.556;9.342;2022-12-18T08:43:00;-5.30;99.90
21744;DHT22;11034;48.556;9.342;2022-12-18T08:45:47;-5.20;99.90
21744;DHT22;11034;48.556;9.342;2022-12-18T08:48:15;-5.20;99.90
21744;DHT22;11034;48.556;9.342;2022-12-18T08:50:54;-5.10;99.90
21744;DHT22;11034;48.556;9.342;2022-12-18T08:53:22;-5.10;99.90
21744;DHT22;11034;48.556;9.342;2022-12-18T08:55:50;-5.20;99.90
21744;DHT22;11034;48.556;9.342;2022-12-18T08:58:18;-5.10;99.90
21744;DHT22;11034;48.556;9.342;2022-12-18T09:00:48;-5.10;99.90
21744;DHT22;11034;48.556;9.342;2022-12-18T09:03:17;-5.10;99.90
21744;DHT22;11034;48.556;9.342;2022-12-18T09:05:46;-5.10;99.90
21744;DHT22;11034;48.556;9.342;2022-12-18T09:08:14;-5.10;99.90
21744;DHT22;11034;48.556;9.342;2022-12-18T09:10:42;-5.10;99.90
21744;DHT22;11034;48.556;9.342;2022-12-18T09:13:11;-5.00;99.90
21744;DHT22;11034;48.556;9.342;2022-12-18T09:15:41;-4.90;99.90
21744;DHT22;11034;48.556;9.342;2022-12-18T09:18:11;-4.90;99.90
21744;DHT22;11034;48.556;9.342;2022-12-18T09:20:39;-4.90;99.90
21744;DHT22;11034;48.556;9.342;2022-12-18T09:23:07;-4.90;99.90
21744;DHT22;11034;48.556;9.342;2022-12-18T09:25:36;-4.80;99.90
21744;DHT22;11034;48.556;9.342;2022-12-18T09:28:06;-4.70;99.90
21744;DHT22;11034;48.556;9.342;2022-12-18T09:30:37;-4.70;99.90
21744;DHT22;11034;48.556;9.342;2022-12-18T09:33:05;-4.60;99.90
21744;DHT22;11034;48.556;9.342;2022-12-18T09:35:37;-4.60;99.90
21744;DHT22;11034;48.556;9.342;2022-12-18T09:38:06;-4.50;99.90
21744;DHT22;11034;48.556;9.342;2022-12-18T09:40:36;-4.50;99.90
21744;DHT22;11034;48.556;9.342;2022-12-18T09:43:14;-4.40;99.90
21744;DHT22;11034;48.556;9.342;2022-12-18T09:45:46;-4.30;99.90
21744;DHT22;11034;48.556;9.342;2022-12-18T09:48:20;-4.20;99.90
21744;DHT22;11034;48.556;9.342;2022-12-18T09:50:51;-4.20;99.90
21744;DHT22;11034;48.556;9.342;2022-12-18T09:53:26;-4.00;99.90
21744;DHT22;11034;48.556;9.342;2022-12-18T09:55:56;-3.90;99.90
21744;DHT22;11034;48.556;9.342;2022-12-18T09:58:29;-3.80;99.90
21744;DHT22;11034;48.556;9.342;2022-12-18T10:00:58;-3.90;99.90
21744;DHT22;11034;48.556;9.342;2022-12-18T10:03:27;-3.90;99.90
21744;DHT22;11034;48.556;9.342;2022-12-18T10:06:04;-3.80;99.90
21744;DHT22;11034;48.556;9.342;2022-12-18T10:08:39;-3.70;99.90
21744;DHT22;11034;48.556;9.342;2022-12-18T10:11:34;-3.70;99.90
21744;DHT22;11034;48.556;9.342;2022-12-18T10:14:14;-3.60;99.90
21744;DHT22;11034;48.556;9.342;2022-12-18T10:16:50;-3.60;99.90
21744;DHT22;11034;48.556;9.342;2022-12-18T10:19:34;-3.50;99.90
21744;DHT22;11034;48.556;9.342;2022-12-18T10:22:13;-3.60;99.90
21744;DHT22;11034;48.556;9.342;2022-12-18T10:24:47;-3.70;99.90
21744;DHT22;11034;48.556;9.342;2022-12-18T10:27:21;-3.60;99.90
21744;DHT22;11034;48.556;9.342;2022-12-18T10:29:49;-3.60;99.90
21744;DHT22;11034;48.556;9.342;2022-12-18T10:32:19;-3.60;99.90
21744;DHT22;11034;48.556;9.342;2022-12-18T10:34:50;-3.50;99.90
21744;DHT22;11034;48.556;9.342;2022-12-18T10:37:28;-3.60;99.90
21744;DHT22;11034;48.556;9.342;2022-12-18T10:40:10;-3.50;99.90
21744;DHT22;11034;48.556;9.342;2022-12-18T10:42:50;-3.40;99.90
21744;DHT22;11034;48.556;9.342;2022-12-18T10:45:32;-3.30;99.90
21744;DHT22;11034;48.556;9.342;2022-12-18T10:48:01;-3.20;99.90
21744;DHT22;11034;48.556;9.342;2022-12-18T10:50:34;-3.10;99.90
21744;DHT22;11034;48.556;9.342;2022-12-18T10:53:26;-2.70;99.90
21744;DHT22;11034;48.556;9.342;2022-12-18T10:55:57;-2.80;99.90
21744;DHT22;11034;48.556;9.342;2022-12-18T10:58:31;-2.80;99.90
21744;DHT22;11034;48.556;9.342;2022-12-18T11:01:05;-2.70;99.90
21744;DHT22;11034;48.556;9.342;2022-12-18T11:03:36;-2.80;99.90
21744;DHT22;11034;48.556;9.342;2022-12-18T11:06:08;-2.70;99.90
21744;DHT22;11034;48.556;9.342;2022-12-18T11:08:38;-2.80;99.90
21744;DHT22;11034;48.556;9.342;2022-12-18T11:11:15;-2.70;99.90
21744;DHT22;11034;48.556;9.342;2022-12-18T11:13:55;-2.60;99.90
21744;DHT22;11034;48.556;9.342;2022-12-18T11:16:26;-2.70;99.90
21744;DHT22;11034;48.556;9.342;2022-12-18T11:18:59;-2.50;99.90
21744;DHT22;11034;48.556;9.342;2022-12-18T11:21:39;-2.40;99.90
21744;DHT22;11034;48.556;9.342;2022-12-18T11:24:19;-2.40;99.90
21744;DHT22;11034;48.556;9.342;2022-12-18T11:26:48;-2.10;99.90
21744;DHT22;11034;48.556;9.342;2022-12-18T11:29:31;-2.20;99.90
21744;DHT22;11034;48.556;9.342;2022-12-18T11:32:34;-2.30;99.90
21744;DHT22;11034;48.556;9.342;2022-12-18T11:35:10;-2.60;99.90
21744;DHT22;11034;48.556;9.342;2022-12-18T11:37:40;-2.40;99.90
21744;DHT22;11034;48.556;9.342;2022-12-18T11:40:15;-2.60;99.90
21744;DHT22;11034;48.556;9.342;2022-12-18T11:42:48;-2.60;99.90
21744;DHT22;11034;48.556;9.342;2022-12-18T11:45:24;-2.80;99.90
21744;DHT22;11034;48.556;9.342;2022-12-18T11:47:58;-2.90;99.90
21744;DHT22;11034;48.556;9.342;2022-12-18T11:50:31;-2.90;99.90
21744;DHT22;11034;48.556;9.342;2022-12-18T11:53:00;-2.90;99.90
21744;DHT22;11034;48.556;9.342;2022-12-18T11:55:39;-2.80;99.90
21744;DHT22;11034;48.556;9.342;2022-12-18T11:58:15;-2.90;99.90
21744;DHT22;11034;48.556;9.342;2022-12-18T12:00:52;-3.00;99.90
21744;DHT22;11034;48.556;9.342;2022-12-18T12:03:48;-3.00;99.90
21744;DHT22;11034;48.556;9.342;2022-12-18T12:06:23;-3.20;99.90
21744;DHT22;11034;48.556;9.342;2022-12-18T12:09:02;-3.20;99.90
21744;DHT22;11034;48.556;9.342;2022-12-18T12:11:40;-3.20;99.90
21744;DHT22;11034;48.556;9.342;2022-12-18T12:14:20;-3.30;99.90
21744;DHT22;11034;48.556;9.342;2022-12-18T12:16:55;-3.20;99.90
21744;DHT22;11034;48.556;9.342;2022-12-18T12:19:33;-3.30;99.90
21744;DHT22;11034;48.556;9.342;2022-12-18T12:22:08;-3.30;99.90
21744;DHT22;11034;48.556;9.342;2022-12-18T12:24:49;-3.30;99.90
21744;DHT22;11034;48.556;9.342;2022-12-18T12:27:28;-3.30;99.90
21744;DHT22;11034;48.556;9.342;2022-12-18T12:30:04;-3.20;99.90
21744;DHT22;11034;48.556;9.342;2022-12-18T12:32:54;-3.10;99.90
21744;DHT22;11034;48.556;9.342;2022-12-18T12:35:35;-3.20;99.90
21744;DHT22;11034;48.556;9.342;2022-12-18T12:38:09;-3.10;99.90
21744;DHT22;11034;48.556;9.342;2022-12-18T12:40:42;-2.90;99.90
21744;DHT22;11034;48.556;9.342;2022-12-18T12:43:44;-2.90;99.90
21744;DHT22;11034;48.556;9.342;2022-12-18T12:46:19;-2.80;99.90
21744;DHT22;11034;48.556;9.342;2022-12-18T12:48:51;-2.90;99.90
21744;DHT22;11034;48.556;9.342;2022-12-18T12:51:22;-2.90;99.90
21744;DHT22;11034;48.556;9.342;2022-12-18T12:53:51;-3.10;99.90
21744;DHT22;11034;48.556;9.342;2022-12-18T12:56:21;-3.00;99.90
21744;DHT22;11034;48.556;9.342;2022-12-18T12:58:58;-3.10;99.90
21744;DHT22;11034;48.556;9.342;2022-12-18T13:01:33;-3.10;99.90
21744;DHT22;11034;48.556;9.342;2022-12-18T13:04:10;-2.90;99.90
21744;DHT22;11034;48.556;9.342;2022-12-18T13:06:45;-2.90;99.90
21744;DHT22;11034;48.556;9.342;2022-12-18T13:09:15;-3.00;99.90
21744;DHT22;11034;48.556;9.342;2022-12-18T13:11:45;-3.10;99.90
21744;DHT22;11034;48.556;9.342;2022-12-18T13:14:34;-3.00;99.90
21744;DHT22;11034;48.556;9.342;2022-12-18T13:17:29;-3.00;99.90
21744;DHT22;11034;48.556;9.342;2022-12-18T13:20:09;-3.00;99.90
21744;DHT22;11034;48.556;9.342;2022-12-18T13:22:43;-3.00;99.90
21744;DHT22;11034;48.556;9.342;2022-12-18T13:25:35;-2.90;99.90
21744;DHT22;11034;48.556;9.342;2022-12-18T13:28:06;-2.80;99.90
21744;DHT22;11034;48.556;9.342;2022-12-18T13:30:54;-2.70;99.90
21744;DHT22;11034;48.556;9.342;2022-12-18T13:33:43;-2.50;99.90
21744;DHT22;11034;48.556;9.342;2022-12-18T13:36:34;-2.40;99.90
21744;DHT22;11034;48.556;9.342;2022-12-18T13:39:22;-2.50;99.90
21744;DHT22;11034;48.556;9.342;2022-12-18T13:45:43;-2.50;99.90
21744;DHT22;11034;48.556;9.342;2022-12-18T13:48:22;-2.30;99.90
21744;DHT22;11034;48.556;9.342;2022-12-18T13:51:09;-2.30;99.90
21744;DHT22;11034;48.556;9.342;2022-12-18T13:53:46;-2.30;99.90
21744;DHT22;11034;48.556;9.342;2022-12-18T13:56:16;-2.30;99.90
21744;DHT22;11034;48.556;9.342;2022-12-18T13:58:44;-2.30;99.90
21744;DHT22;11034;48.556;9.342;2022-12-18T14:01:22;-2.30;99.90
21744;DHT22;11034;48.556;9.342;2022-12-18T14:04:09;-2.30;99.90
21744;DHT22;11034;48.556;9.342;2022-12-18T14:06:37;-2.30;99.90
21744;DHT22;11034;48.556;9.342;2022-12-18T14:09:05;-2.30;99.90
21744;DHT22;11034;48.556;9.342;2022-12-18T14:11:35;-2.20;99.90
21744;DHT22;11034;48.556;9.342;2022-12-18T14:14:06;-2.30;99.90
21744;DHT22;11034;48.556;9.342;2022-12-18T14:16:34;-2.40;99.90
21744;DHT22;11034;48.556;9.342;2022-12-18T14:19:08;-2.40;99.90
21744;DHT22;11034;48.556;9.342;2022-12-18T14:21:46;-2.50;99.90
21744;DHT22;11034;48.556;9.342;2022-12-18T14:24:16;-2.60;99.90
21744;DHT22;11034;48.556;9.342;2022-12-18T14:26:46;-2.70;99.90
21744;DHT22;11034;48.556;9.342;2022-12-18T14:29:24;-2.80;99.90
21744;DHT22;11034;48.556;9.342;2022-12-18T14:32:10;-2.80;99.90
21744;DHT22;11034;48.556;9.342;2022-12-18T14:34:46;-2.90;99.90
21744;DHT22;11034;48.556;9.342;2022-12-18T14:37:17;-3.00;99.90
21744;DHT22;11034;48.556;9.342;2022-12-18T14:39:56;-3.10;99.90
21744;DHT22;11034;48.556;9.342;2022-12-18T14:42:31;-3.10;99.90
21744;DHT22;11034;48.556;9.342;2022-12-18T14:45:33;-3.10;99.90
21744;DHT22;11034;48.556;9.342;2022-12-18T14:48:11;-3.20;99.90
21744;DHT22;11034;48.556;9.342;2022-12-18T14:50:57;-3.30;99.90
21744;DHT22;11034;48.556;9.342;2022-12-18T14:53:44;-3.40;99.90
21744;DHT22;11034;48.556;9.342;2022-12-18T14:56:21;-3.50;99.90
21744;DHT22;11034;48.556;9.342;2022-12-18T14:58:52;-3.50;99.90
21744;DHT22;11034;48.556;9.342;2022-12-18T15:01:23;-3.60;99.90
21744;DHT22;11034;48.556;9.342;2022-12-18T15:03:53;-3.70;99.90
21744;DHT22;11034;48.556;9.342;2022-12-18T15:06:31;-3.80;99.90
21744;DHT22;11034;48.556;9.342;2022-12-18T15:09:02;-3.90;99.90
21744;DHT22;11034;48.556;9.342;2022-12-18T15:11:42;-4.00;99.90
21744;DHT22;11034;48.556;9.342;2022-12-18T15:14:39;-4.10;99.90
21744;DHT22;11034;48.556;9.342;2022-12-18T15:17:16;-4.20;99.90
21744;DHT22;11034;48.556;9.342;2022-12-18T15:19:46;-4.40;99.90
21744;DHT22;11034;48.556;9.342;2022-12-18T15:22:34;-4.40;99.90
21744;DHT22;11034;48.556;9.342;2022-12-18T15:25:22;-4.50;99.90
21744;DHT22;11034;48.556;9.342;2022-12-18T15:27:53;-4.50;99.90
21744;DHT22;11034;48.556;9.342;2022-12-18T15:30:22;-4.50;99.90
21744;DHT22;11034;48.556;9.342;2022-12-18T15:33:15;-4.50;99.90
21744;DHT22;11034;48.556;9.342;2022-12-18T15:35:40;-4.40;99.90
21744;DHT22;11034;48.556;9.342;2022-12-18T15:38:14;-4.30;99.90
21744;DHT22;11034;48.556;9.342;2022-12-18T15:40:42;-4.10;99.90
21744;DHT22;11034;48.556;9.342;2022-12-18T15:43:10;-3.90;99.90
21744;DHT22;11034;48.556;9.342;2022-12-18T15:45:55;-3.80;99.90
21744;DHT22;11034;48.556;9.342;2022-12-18T15:48:23;-3.80;99.90
21744;DHT22;11034;48.556;9.342;2022-12-18T15:50:53;-3.70;99.90
21744;DHT22;11034;48.556;9.342;2022-12-18T15:53:29;-3.70;99.90
21744;DHT22;11034;48.556;9.342;2022-12-18T15:55:58;-3.70;99.90
21744;DHT22;11034;48.556;9.342;2022-12-18T15:58:44;-3.70;99.90
21744;DHT22;11034;48.556;9.342;2022-12-18T16:01:12;-3.70;99.90
21744;DHT22;11034;48.556;9.342;2022-12-18T16:03:41;-3.70;99.90
21744;DHT22;11034;48.556;9.342;2022-12-18T16:06:10;-3.60;99.90
21744;DHT22;11034;48.556;9.342;2022-12-18T16:08:39;-3.50;99.90